sensor_id;sensor_type;location;lat;lon;timestamp;P1;durP1;ratioP1;P2;durP2;ratioP2
15077;SDS011;7638;49.760;8.646;2023-08-21T00:01:00;7.37;;;4.50;;
15077;SDS011;7638;49.760;8.646;2023-08-21T00:03:26;5.33;;;3.73;;
15077;SDS011;7638;49.760;8.646;2023-08-21T00:05:52;4.50;;;4.10;;
15077;SDS011;7638;49.760;8.646;2023-08-21T00:08:18;7.60;;;4.33;;
15077;SDS011;7638;49.760;8.646;2023-08-21T00:10:44;10.17;;;4.47;;
15077;SDS011;7638;49.760;8.646;2023-08-21T00:13:10;4.97;;;3.80;;
15077;SDS011;7638;49.760;8.646;2023-08-21T00:15:37;9.93;;;4.17;;
15077;SDS011;7638;49.760;8.646;2023-08-21T00:18:04;7.80;;;4.30;;
15077;SDS011;7638;49.760;8.646;2023-08-21T00:20:30;6.80;;;3.90;;
15077;SDS011;7638;49.760;8.646;2023-08-21T00:22:56;6.57;;;3.70;;
15077;SDS011;7638;49.760;8.646;2023-08-21T00:25:22;4.70;;;4.20;;
15077;SDS011;7638;49.760;8.646;2023-08-21T00:27:48;11.50;;;4.97;;
15077;SDS011;7638;49.760;8.646;2023-08-21T00:30:14;7.60;;;4.93;;
15077;SDS011;7638;49.760;8.646;2023-08-21T00:32:41;7.27;;;4.63;;
15077;SDS011;7638;49.760;8.646;2023-08-21T00:35:07;8.17;;;5.13;;
15077;SDS011;7638;49.760;8.646;2023-08-21T00:37:33;6.87;;;4.53;;
15077;SDS011;7638;49.760;8.646;2023-08-21T00:39:59;9.40;;;4.70;;
15077;SDS011;7638;49.760;8.646;2023-08-21T00:42:25;5.17;;;4.67;;
15077;SDS011;7638;49.760;8.646;2023-08-21T00:44:51;5.37;;;4.60;;
15077;SDS011;7638;49.760;8.646;2023-08-21T00:47:17;6.53;;;4.73;;
15077;SDS011;7638;49.760;8.646;2023-08-21T00:49:44;6.90;;;4.20;;
15077;SDS011;7638;49.760;8.646;2023-08-21T00:52:10;8.20;;;4.80;;
15077;SDS011;7638;49.760;8.646;2023-08-21T00:54:38;7.93;;;4.70;;
15077;SDS011;7638;49.760;8.646;2023-08-21T00:57:04;5.00;;;4.20;;
15077;SDS011;7638;49.760;8.646;2023-08-21T00:59:30;6.47;;;4.67;;
15077;SDS011;7638;49.760;8.646;2023-08-21T01:01:56;7.73;;;4.50;;
15077;SDS011;7638;49.760;8.646;2023-08-21T01:04:22;10.93;;;4.83;;
15077;SDS011;7638;49.760;8.646;2023-08-21T01:06:48;9.60;;;4.57;;
15077;SDS011;7638;49.760;8.646;2023-08-21T01:12:06;6.33;;;4.67;;
15077;SDS011;7638;49.760;8.646;2023-08-21T01:14:43;9.80;;;5.30;;
15077;SDS011;7638;49.760;8.646;2023-08-21T01:17:12;10.27;;;4.77;;
15077;SDS011;7638;49.760;8.646;2023-08-21T01:19:41;5.67;;;4.73;;
15077;SDS011;7638;49.760;8.646;2023-08-21T01:22:07;5.83;;;4.87;;
15077;SDS011;7638;49.760;8.646;2023-08-21T01:24:33;8.53;;;5.13;;
15077;SDS011;7638;49.760;8.646;2023-08-21T01:27:00;5.67;;;4.73;;
15077;SDS011;7638;49.760;8.646;2023-08-21T01:29:26;6.47;;;4.63;;
15077;SDS011;7638;49.760;8.646;2023-08-21T01:31:56;7.70;;;4.97;;
15077;SDS011;7638;49.760;8.646;2023-08-21T01:34:24;7.60;;;4.50;;
15077;SDS011;7638;49.760;8.646;2023-08-21T01:36:50;12.97;;;5.03;;
15077;SDS011;7638;49.760;8.646;2023-08-21T01:39:16;6.87;;;5.13;;
15077;SDS011;7638;49.760;8.646;2023-08-21T01:41:43;6.33;;;5.30;;
15077;SDS011;7638;49.760;8.646;2023-08-21T01:44:09;8.33;;;5.00;;
15077;SDS011;7638;49.760;8.646;2023-08-21T01:46:35;9.63;;;5.67;;
15077;SDS011;7638;49.760;8.646;2023-08-21T01:49:01;6.10;;;5.20;;
15077;SDS011;7638;49.760;8.646;2023-08-21T01:51:27;6.77;;;5.27;;
15077;SDS011;7638;49.760;8.646;2023-08-21T01:53:53;7.70;;;5.20;;
15077;SDS011;7638;49.760;8.646;2023-08-21T01:56:19;6.70;;;5.07;;
15077;SDS011;7638;49.760;8.646;2023-08-21T01:58:44;8.67;;;5.93;;
15077;SDS011;7638;49.760;8.646;2023-08-21T02:01:10;12.40;;;5.10;;
15077;SDS011;7638;49.760;8.646;2023-08-21T02:03:36;6.60;;;4.67;;
15077;SDS011;7638;49.760;8.646;2023-08-21T02:06:02;7.27;;;5.77;;
15077;SDS011;7638;49.760;8.646;2023-08-21T02:08:32;6.90;;;4.53;;
15077;SDS011;7638;49.760;8.646;2023-08-21T02:10:58;14.10;;;5.17;;
15077;SDS011;7638;49.760;8.646;2023-08-21T02:13:24;11.23;;;5.00;;
15077;SDS011;7638;49.760;8.646;2023-08-21T02:15:50;8.03;;;6.67;;
15077;SDS011;7638;49.760;8.646;2023-08-21T02:18:16;10.83;;;5.47;;
15077;SDS011;7638;49.760;8.646;2023-08-21T02:20:42;5.97;;;4.63;;
15077;SDS011;7638;49.760;8.646;2023-08-21T02:23:08;7.03;;;6.33;;
15077;SDS011;7638;49.760;8.646;2023-08-21T02:25:34;11.50;;;5.60;;
15077;SDS011;7638;49.760;8.646;2023-08-21T02:28:00;9.10;;;6.27;;
15077;SDS011;7638;49.760;8.646;2023-08-21T02:30:27;6.73;;;6.03;;
15077;SDS011;7638;49.760;8.646;2023-08-21T02:32:54;7.50;;;5.57;;
15077;SDS011;7638;49.760;8.646;2023-08-21T02:35:20;7.80;;;5.77;;
15077;SDS011;7638;49.760;8.646;2023-08-21T02:37:46;9.20;;;5.80;;
15077;SDS011;7638;49.760;8.646;2023-08-21T02:40:12;11.67;;;5.77;;
15077;SDS011;7638;49.760;8.646;2023-08-21T02:42:38;6.70;;;5.23;;
15077;SDS011;7638;49.760;8.646;2023-08-21T02:45:04;8.57;;;5.90;;
15077;SDS011;7638;49.760;8.646;2023-08-21T02:47:37;9.73;;;5.30;;
15077;SDS011;7638;49.760;8.646;2023-08-21T02:50:04;6.80;;;5.30;;
15077;SDS011;7638;49.760;8.646;2023-08-21T02:52:30;8.57;;;5.40;;
15077;SDS011;7638;49.760;8.646;2023-08-21T02:54:57;7.90;;;5.63;;
15077;SDS011;7638;49.760;8.646;2023-08-21T02:57:24;7.60;;;5.17;;
15077;SDS011;7638;49.760;8.646;2023-08-21T02:59:50;10.03;;;5.37;;
15077;SDS011;7638;49.760;8.646;2023-08-21T03:02:16;6.00;;;5.33;;
15077;SDS011;7638;49.760;8.646;2023-08-21T03:04:42;6.00;;;5.07;;
15077;SDS011;7638;49.760;8.646;2023-08-21T03:07:08;8.43;;;4.90;;
15077;SDS011;7638;49.760;8.646;2023-08-21T03:09:35;14.07;;;6.00;;
15077;SDS011;7638;49.760;8.646;2023-08-21T03:12:01;8.13;;;5.73;;
15077;SDS011;7638;49.760;8.646;2023-08-21T03:14:27;8.63;;;4.90;;
15077;SDS011;7638;49.760;8.646;2023-08-21T03:16:53;7.37;;;4.97;;
15077;SDS011;7638;49.760;8.646;2023-08-21T03:19:19;6.53;;;5.83;;
15077;SDS011;7638;49.760;8.646;2023-08-21T03:21:45;6.27;;;5.33;;
15077;SDS011;7638;49.760;8.646;2023-08-21T03:24:11;8.23;;;5.50;;
15077;SDS011;7638;49.760;8.646;2023-08-21T03:26:37;6.87;;;5.30;;
15077;SDS011;7638;49.760;8.646;2023-08-21T03:29:03;6.67;;;4.90;;
15077;SDS011;7638;49.760;8.646;2023-08-21T03:31:29;5.20;;;4.67;;
15077;SDS011;7638;49.760;8.646;2023-08-21T03:33:55;7.40;;;5.27;;
15077;SDS011;7638;49.760;8.646;2023-08-21T03:36:22;9.23;;;6.00;;
15077;SDS011;7638;49.760;8.646;2023-08-21T03:38:55;6.73;;;5.50;;
15077;SDS011;7638;49.760;8.646;2023-08-21T03:41:21;7.57;;;5.03;;
15077;SDS011;7638;49.760;8.646;2023-08-21T03:43:47;5.70;;;5.13;;
15077;SDS011;7638;49.760;8.646;2023-08-21T03:46:13;8.10;;;5.63;;
15077;SDS011;7638;49.760;8.646;2023-08-21T03:48:39;8.43;;;5.60;;
15077;SDS011;7638;49.760;8.646;2023-08-21T03:51:05;7.10;;;5.37;;
15077;SDS011;7638;49.760;8.646;2023-08-21T03:53:31;8.90;;;6.40;;
15077;SDS011;7638;49.760;8.646;2023-08-21T03:55:57;7.83;;;5.33;;
15077;SDS011;7638;49.760;8.646;2023-08-21T03:58:23;8.67;;;5.67;;
15077;SDS011;7638;49.760;8.646;2023-08-21T04:00:51;10.50;;;6.00;;
15077;SDS011;7638;49.760;8.646;2023-08-21T04:03:17;8.73;;;5.57;;
15077;SDS011;7638;49.760;8.646;2023-08-21T04:05:43;11.73;;;5.40;;
15077;SDS011;7638;49.760;8.646;2023-08-21T04:08:09;9.70;;;5.90;;
15077;SDS011;7638;49.760;8.646;2023-08-21T04:10:35;7.30;;;5.87;;
15077;SDS011;7638;49.760;8.646;2023-08-21T04:13:01;8.53;;;5.83;;
15077;SDS011;7638;49.760;8.646;2023-08-21T04:15:27;7.87;;;6.27;;
15077;SDS011;7638;49.760;8.646;2023-08-21T04:17:53;6.53;;;5.47;;
15077;SDS011;7638;49.760;8.646;2023-08-21T04:20:19;10.77;;;6.10;;
15077;SDS011;7638;49.760;8.646;2023-08-21T04:22:49;13.10;;;6.80;;
15077;SDS011;7638;49.760;8.646;2023-08-21T04:25:15;8.50;;;5.80;;
15077;SDS011;7638;49.760;8.646;2023-08-21T04:27:41;11.00;;;6.33;;
15077;SDS011;7638;49.760;8.646;2023-08-21T04:30:08;8.97;;;6.17;;
15077;SDS011;7638;49.760;8.646;2023-08-21T04:32:34;12.00;;;5.53;;
15077;SDS011;7638;49.760;8.646;2023-08-21T04:35:00;11.67;;;5.67;;
15077;SDS011;7638;49.760;8.646;2023-08-21T04:37:26;7.37;;;5.70;;
15077;SDS011;7638;49.760;8.646;2023-08-21T04:39:53;8.23;;;6.57;;
15077;SDS011;7638;49.760;8.646;2023-08-21T04:42:19;8.13;;;6.37;;
15077;SDS011;7638;49.760;8.646;2023-08-21T04:44:45;8.90;;;6.53;;
15077;SDS011;7638;49.760;8.646;2023-08-21T04:47:24;8.50;;;6.33;;
15077;SDS011;7638;49.760;8.646;2023-08-21T04:49:53;9.00;;;5.80;;
15077;SDS011;7638;49.760;8.646;2023-08-21T04:52:20;8.60;;;6.07;;
15077;SDS011;7638;49.760;8.646;2023-08-21T04:54:49;7.80;;;5.77;;
15077;SDS011;7638;49.760;8.646;2023-08-21T04:57:15;8.97;;;6.53;;
15077;SDS011;7638;49.760;8.646;2023-08-21T04:59:42;7.10;;;6.40;;
15077;SDS011;7638;49.760;8.646;2023-08-21T05:02:08;11.37;;;5.43;;
15077;SDS011;7638;49.760;8.646;2023-08-21T05:04:35;13.73;;;6.30;;
15077;SDS011;7638;49.760;8.646;2023-08-21T05:07:01;10.20;;;6.10;;
15077;SDS011;7638;49.760;8.646;2023-08-21T05:09:27;11.47;;;6.00;;
15077;SDS011;7638;49.760;8.646;2023-08-21T05:11:53;8.13;;;6.07;;
15077;SDS011;7638;49.760;8.646;2023-08-21T05:14:20;14.73;;;6.50;;
15077;SDS011;7638;49.760;8.646;2023-08-21T05:16:46;9.17;;;6.13;;
15077;SDS011;7638;49.760;8.646;2023-08-21T05:19:12;6.73;;;6.03;;
15077;SDS011;7638;49.760;8.646;2023-08-21T05:21:38;8.27;;;6.33;;
15077;SDS011;7638;49.760;8.646;2023-08-21T05:24:04;10.33;;;5.33;;
15077;SDS011;7638;49.760;8.646;2023-08-21T05:26:30;7.90;;;5.47;;
15077;SDS011;7638;49.760;8.646;2023-08-21T05:28:56;7.13;;;5.63;;
15077;SDS011;7638;49.760;8.646;2023-08-21T05:31:22;8.97;;;6.20;;
15077;SDS011;7638;49.760;8.646;2023-08-21T05:33:48;7.20;;;6.00;;
15077;SDS011;7638;49.760;8.646;2023-08-21T05:36:14;9.63;;;5.53;;
15077;SDS011;7638;49.760;8.646;2023-08-21T05:38:40;9.77;;;6.33;;
15077;SDS011;7638;49.760;8.646;2023-08-21T05:41:06;11.47;;;6.27;;
15077;SDS011;7638;49.760;8.646;2023-08-21T05:43:33;7.93;;;5.77;;
15077;SDS011;7638;49.760;8.646;2023-08-21T05:45:59;7.43;;;5.97;;
15077;SDS011;7638;49.760;8.646;2023-08-21T05:48:25;10.97;;;6.77;;
15077;SDS011;7638;49.760;8.646;2023-08-21T05:50:52;10.23;;;6.17;;
15077;SDS011;7638;49.760;8.646;2023-08-21T05:53:18;7.40;;;6.17;;
15077;SDS011;7638;49.760;8.646;2023-08-21T05:55:44;10.13;;;5.33;;
15077;SDS011;7638;49.760;8.646;2023-08-21T05:58:10;11.83;;;5.60;;
15077;SDS011;7638;49.760;8.646;2023-08-21T06:00:37;7.00;;;5.53;;
15077;SDS011;7638;49.760;8.646;2023-08-21T06:03:04;10.00;;;5.43;;
15077;SDS011;7638;49.760;8.646;2023-08-21T06:05:30;8.93;;;6.23;;
15077;SDS011;7638;49.760;8.646;2023-08-21T06:07:56;8.90;;;5.90;;
15077;SDS011;7638;49.760;8.646;2023-08-21T06:10:22;9.33;;;5.93;;
15077;SDS011;7638;49.760;8.646;2023-08-21T06:12:48;8.37;;;5.47;;
15077;SDS011;7638;49.760;8.646;2023-08-21T06:15:15;6.70;;;6.00;;
15077;SDS011;7638;49.760;8.646;2023-08-21T06:17:41;9.13;;;6.47;;
15077;SDS011;7638;49.760;8.646;2023-08-21T06:20:07;14.40;;;6.70;;
15077;SDS011;7638;49.760;8.646;2023-08-21T06:22:34;7.90;;;6.03;;
15077;SDS011;7638;49.760;8.646;2023-08-21T06:25:00;8.40;;;5.87;;
15077;SDS011;7638;49.760;8.646;2023-08-21T06:27:26;8.57;;;6.33;;
15077;SDS011;7638;49.760;8.646;2023-08-21T06:29:52;8.67;;;6.57;;
15077;SDS011;7638;49.760;8.646;2023-08-21T06:32:18;10.43;;;7.07;;
15077;SDS011;7638;49.760;8.646;2023-08-21T06:34:44;7.90;;;6.07;;
15077;SDS011;7638;49.760;8.646;2023-08-21T06:37:10;7.50;;;6.27;;
15077;SDS011;7638;49.760;8.646;2023-08-21T06:39:37;8.87;;;5.70;;
15077;SDS011;7638;49.760;8.646;2023-08-21T06:42:03;11.53;;;6.70;;
15077;SDS011;7638;49.760;8.646;2023-08-21T06:44:29;10.33;;;5.90;;
15077;SDS011;7638;49.760;8.646;2023-08-21T06:46:55;9.70;;;5.53;;
15077;SDS011;7638;49.760;8.646;2023-08-21T06:49:21;7.73;;;6.87;;
15077;SDS011;7638;49.760;8.646;2023-08-21T06:51:48;7.90;;;5.97;;
15077;SDS011;7638;49.760;8.646;2023-08-21T06:54:14;8.43;;;6.07;;
15077;SDS011;7638;49.760;8.646;2023-08-21T06:56:40;8.20;;;5.93;;
15077;SDS011;7638;49.760;8.646;2023-08-21T06:59:06;7.67;;;6.43;;
15077;SDS011;7638;49.760;8.646;2023-08-21T07:01:32;8.90;;;6.97;;
15077;SDS011;7638;49.760;8.646;2023-08-21T07:03:58;9.83;;;7.20;;
15077;SDS011;7638;49.760;8.646;2023-08-21T07:06:26;8.47;;;6.13;;
15077;SDS011;7638;49.760;8.646;2023-08-21T07:08:53;6.40;;;5.77;;
15077;SDS011;7638;49.760;8.646;2023-08-21T07:11:19;8.70;;;6.77;;
15077;SDS011;7638;49.760;8.646;2023-08-21T07:13:45;11.30;;;6.23;;
15077;SDS011;7638;49.760;8.646;2023-08-21T07:16:11;10.63;;;5.97;;
15077;SDS011;7638;49.760;8.646;2023-08-21T07:18:37;11.90;;;7.47;;
15077;SDS011;7638;49.760;8.646;2023-08-21T07:21:04;7.20;;;6.17;;
15077;SDS011;7638;49.760;8.646;2023-08-21T07:23:30;12.90;;;6.67;;
15077;SDS011;7638;49.760;8.646;2023-08-21T07:25:57;10.50;;;6.43;;
15077;SDS011;7638;49.760;8.646;2023-08-21T07:28:23;11.00;;;5.97;;
15077;SDS011;7638;49.760;8.646;2023-08-21T07:30:56;6.33;;;5.73;;
15077;SDS011;7638;49.760;8.646;2023-08-21T07:33:23;8.50;;;6.83;;
15077;SDS011;7638;49.760;8.646;2023-08-21T07:36:02;10.10;;;6.40;;
15077;SDS011;7638;49.760;8.646;2023-08-21T07:38:28;6.83;;;5.63;;
15077;SDS011;7638;49.760;8.646;2023-08-21T07:43:30;11.47;;;6.10;;
15077;SDS011;7638;49.760;8.646;2023-08-21T07:45:56;10.80;;;6.90;;
15077;SDS011;7638;49.760;8.646;2023-08-21T07:48:22;8.60;;;6.80;;
15077;SDS011;7638;49.760;8.646;2023-08-21T07:50:54;12.13;;;6.70;;
15077;SDS011;7638;49.760;8.646;2023-08-21T07:53:20;15.60;;;6.37;;
15077;SDS011;7638;49.760;8.646;2023-08-21T07:55:46;7.40;;;6.57;;
15077;SDS011;7638;49.760;8.646;2023-08-21T07:58:12;9.97;;;5.90;;
15077;SDS011;7638;49.760;8.646;2023-08-21T08:00:38;7.20;;;6.23;;
15077;SDS011;7638;49.760;8.646;2023-08-21T08:03:04;9.20;;;6.13;;
15077;SDS011;7638;49.760;8.646;2023-08-21T08:05:31;11.53;;;6.07;;
15077;SDS011;7638;49.760;8.646;2023-08-21T08:07:56;8.87;;;6.70;;
15077;SDS011;7638;49.760;8.646;2023-08-21T08:10:23;6.97;;;6.13;;
15077;SDS011;7638;49.760;8.646;2023-08-21T08:12:49;7.20;;;6.10;;
15077;SDS011;7638;49.760;8.646;2023-08-21T08:15:15;7.60;;;6.30;;
15077;SDS011;7638;49.760;8.646;2023-08-21T08:17:41;10.80;;;6.47;;
15077;SDS011;7638;49.760;8.646;2023-08-21T08:20:09;6.33;;;5.63;;
15077;SDS011;7638;49.760;8.646;2023-08-21T08:22:35;8.53;;;7.27;;
15077;SDS011;7638;49.760;8.646;2023-08-21T08:25:01;7.43;;;6.23;;
15077;SDS011;7638;49.760;8.646;2023-08-21T08:27:27;7.43;;;6.73;;
15077;SDS011;7638;49.760;8.646;2023-08-21T08:29:53;8.00;;;6.53;;
15077;SDS011;7638;49.760;8.646;2023-08-21T08:32:19;6.73;;;6.03;;
15077;SDS011;7638;49.760;8.646;2023-08-21T08:34:45;7.97;;;5.93;;
15077;SDS011;7638;49.760;8.646;2023-08-21T08:37:12;8.23;;;6.10;;
15077;SDS011;7638;49.760;8.646;2023-08-21T08:39:38;9.40;;;7.17;;
15077;SDS011;7638;49.760;8.646;2023-08-21T08:42:05;9.73;;;6.33;;
15077;SDS011;7638;49.760;8.646;2023-08-21T08:44:31;5.73;;;5.10;;
15077;SDS011;7638;49.760;8.646;2023-08-21T08:47:00;7.60;;;5.60;;
15077;SDS011;7638;49.760;8.646;2023-08-21T08:49:27;10.60;;;6.27;;
15077;SDS011;7638;49.760;8.646;2023-08-21T08:51:53;9.03;;;5.80;;
15077;SDS011;7638;49.760;8.646;2023-08-21T08:54:20;9.37;;;5.77;;
15077;SDS011;7638;49.760;8.646;2023-08-21T08:56:46;7.03;;;6.33;;
15077;SDS011;7638;49.760;8.646;2023-08-21T08:59:12;9.07;;;6.53;;
15077;SDS011;7638;49.760;8.646;2023-08-21T09:01:39;9.90;;;6.90;;
15077;SDS011;7638;49.760;8.646;2023-08-21T09:04:05;12.80;;;6.83;;
15077;SDS011;7638;49.760;8.646;2023-08-21T09:06:32;9.83;;;6.97;;
15077;SDS011;7638;49.760;8.646;2023-08-21T09:08:58;8.73;;;6.40;;
15077;SDS011;7638;49.760;8.646;2023-08-21T09:11:24;7.50;;;6.80;;
15077;SDS011;7638;49.760;8.646;2023-08-21T09:13:51;8.67;;;6.90;;
15077;SDS011;7638;49.760;8.646;2023-08-21T09:16:17;8.00;;;6.10;;
15077;SDS011;7638;49.760;8.646;2023-08-21T09:18:50;17.27;;;7.30;;
15077;SDS011;7638;49.760;8.646;2023-08-21T09:21:17;6.90;;;6.20;;
15077;SDS011;7638;49.760;8.646;2023-08-21T09:23:43;8.73;;;6.37;;
15077;SDS011;7638;49.760;8.646;2023-08-21T09:26:10;7.90;;;6.13;;
15077;SDS011;7638;49.760;8.646;2023-08-21T09:28:36;7.57;;;6.77;;
15077;SDS011;7638;49.760;8.646;2023-08-21T09:31:03;8.00;;;5.80;;
15077;SDS011;7638;49.760;8.646;2023-08-21T09:33:29;9.10;;;6.07;;
15077;SDS011;7638;49.760;8.646;2023-08-21T09:35:55;6.90;;;6.20;;
15077;SDS011;7638;49.760;8.646;2023-08-21T09:38:21;7.10;;;6.33;;
15077;SDS011;7638;49.760;8.646;2023-08-21T09:40:54;11.20;;;6.40;;
15077;SDS011;7638;49.760;8.646;2023-08-21T09:43:20;7.93;;;6.23;;
15077;SDS011;7638;49.760;8.646;2023-08-21T09:45:47;8.03;;;5.87;;
15077;SDS011;7638;49.760;8.646;2023-08-21T09:48:14;7.57;;;6.30;;
15077;SDS011;7638;49.760;8.646;2023-08-21T09:50:40;11.40;;;6.30;;
15077;SDS011;7638;49.760;8.646;2023-08-21T09:53:06;12.30;;;5.67;;
15077;SDS011;7638;49.760;8.646;2023-08-21T09:55:33;7.40;;;6.03;;
15077;SDS011;7638;49.760;8.646;2023-08-21T09:57:59;9.43;;;6.13;;
15077;SDS011;7638;49.760;8.646;2023-08-21T10:00:32;7.07;;;6.33;;
15077;SDS011;7638;49.760;8.646;2023-08-21T10:03:00;7.10;;;5.80;;
15077;SDS011;7638;49.760;8.646;2023-08-21T10:05:28;7.97;;;5.97;;
15077;SDS011;7638;49.760;8.646;2023-08-21T10:07:55;7.83;;;5.67;;
15077;SDS011;7638;49.760;8.646;2023-08-21T10:10:22;13.20;;;6.57;;
15077;SDS011;7638;49.760;8.646;2023-08-21T10:12:48;7.17;;;5.77;;
15077;SDS011;7638;49.760;8.646;2023-08-21T10:15:14;6.20;;;5.60;;
15077;SDS011;7638;49.760;8.646;2023-08-21T10:17:41;8.67;;;6.23;;
15077;SDS011;7638;49.760;8.646;2023-08-21T10:20:07;6.80;;;5.83;;
15077;SDS011;7638;49.760;8.646;2023-08-21T10:25:27;5.50;;;5.00;;
15077;SDS011;7638;49.760;8.646;2023-08-21T10:27:53;8.00;;;4.97;;
15077;SDS011;7638;49.760;8.646;2023-08-21T10:30:20;7.53;;;5.47;;
15077;SDS011;7638;49.760;8.646;2023-08-21T10:32:47;5.20;;;4.70;;
15077;SDS011;7638;49.760;8.646;2023-08-21T10:35:23;6.60;;;5.63;;
15077;SDS011;7638;49.760;8.646;2023-08-21T10:38:05;11.33;;;5.57;;
15077;SDS011;7638;49.760;8.646;2023-08-21T10:40:32;6.53;;;5.00;;
15077;SDS011;7638;49.760;8.646;2023-08-21T10:42:59;9.70;;;5.47;;
15077;SDS011;7638;49.760;8.646;2023-08-21T10:45:25;6.40;;;5.10;;
15077;SDS011;7638;49.760;8.646;2023-08-21T10:47:51;7.73;;;4.47;;
15077;SDS011;7638;49.760;8.646;2023-08-21T10:50:17;5.80;;;4.83;;
15077;SDS011;7638;49.760;8.646;2023-08-21T10:52:43;7.23;;;5.20;;
15077;SDS011;7638;49.760;8.646;2023-08-21T10:55:14;6.43;;;5.43;;
15077;SDS011;7638;49.760;8.646;2023-08-21T10:57:40;9.13;;;5.03;;
15077;SDS011;7638;49.760;8.646;2023-08-21T11:00:16;6.93;;;4.80;;
15077;SDS011;7638;49.760;8.646;2023-08-21T11:02:43;5.10;;;4.60;;
15077;SDS011;7638;49.760;8.646;2023-08-21T11:05:10;6.33;;;4.47;;
15077;SDS011;7638;49.760;8.646;2023-08-21T11:07:37;10.47;;;4.83;;
15077;SDS011;7638;49.760;8.646;2023-08-21T11:10:04;10.73;;;5.30;;
15077;SDS011;7638;49.760;8.646;2023-08-21T11:12:32;4.40;;;4.00;;
15077;SDS011;7638;49.760;8.646;2023-08-21T11:14:58;5.67;;;3.77;;
15077;SDS011;7638;49.760;8.646;2023-08-21T11:17:24;4.43;;;4.03;;
15077;SDS011;7638;49.760;8.646;2023-08-21T11:19:50;4.93;;;4.17;;
15077;SDS011;7638;49.760;8.646;2023-08-21T11:22:17;6.87;;;4.03;;
15077;SDS011;7638;49.760;8.646;2023-08-21T11:24:44;7.73;;;4.73;;
15077;SDS011;7638;49.760;8.646;2023-08-21T11:27:11;3.83;;;3.47;;
15077;SDS011;7638;49.760;8.646;2023-08-21T11:29:49;7.27;;;4.40;;
15077;SDS011;7638;49.760;8.646;2023-08-21T11:32:16;4.77;;;4.03;;
15077;SDS011;7638;49.760;8.646;2023-08-21T11:34:47;4.93;;;3.33;;
15077;SDS011;7638;49.760;8.646;2023-08-21T11:37:13;4.10;;;2.90;;
15077;SDS011;7638;49.760;8.646;2023-08-21T11:39:49;3.73;;;3.40;;
15077;SDS011;7638;49.760;8.646;2023-08-21T11:42:16;5.30;;;3.40;;
15077;SDS011;7638;49.760;8.646;2023-08-21T11:44:43;8.23;;;3.57;;
15077;SDS011;7638;49.760;8.646;2023-08-21T11:47:09;6.27;;;3.50;;
15077;SDS011;7638;49.760;8.646;2023-08-21T11:49:36;3.40;;;3.03;;
15077;SDS011;7638;49.760;8.646;2023-08-21T11:52:02;3.93;;;2.90;;
15077;SDS011;7638;49.760;8.646;2023-08-21T11:54:32;3.67;;;2.77;;
15077;SDS011;7638;49.760;8.646;2023-08-21T11:56:58;4.17;;;3.00;;
15077;SDS011;7638;49.760;8.646;2023-08-21T11:59:24;5.90;;;2.53;;
15077;SDS011;7638;49.760;8.646;2023-08-21T12:01:50;2.70;;;2.50;;
15077;SDS011;7638;49.760;8.646;2023-08-21T12:04:17;6.17;;;2.53;;
15077;SDS011;7638;49.760;8.646;2023-08-21T12:06:46;4.93;;;2.33;;
15077;SDS011;7638;49.760;8.646;2023-08-21T12:09:12;1.90;;;1.80;;
15077;SDS011;7638;49.760;8.646;2023-08-21T12:11:38;2.03;;;1.77;;
15077;SDS011;7638;49.760;8.646;2023-08-21T12:14:04;2.27;;;1.93;;
15077;SDS011;7638;49.760;8.646;2023-08-21T12:16:30;4.53;;;1.90;;
15077;SDS011;7638;49.760;8.646;2023-08-21T12:18:56;5.03;;;1.90;;
15077;SDS011;7638;49.760;8.646;2023-08-21T12:21:23;2.03;;;1.87;;
15077;SDS011;7638;49.760;8.646;2023-08-21T12:23:49;2.47;;;1.83;;
15077;SDS011;7638;49.760;8.646;2023-08-21T12:26:15;3.13;;;1.70;;
15077;SDS011;7638;49.760;8.646;2023-08-21T12:28:45;1.97;;;1.77;;
15077;SDS011;7638;49.760;8.646;2023-08-21T12:31:11;2.37;;;1.70;;
15077;SDS011;7638;49.760;8.646;2023-08-21T12:33:38;3.80;;;1.77;;
15077;SDS011;7638;49.760;8.646;2023-08-21T12:36:04;2.57;;;2.20;;
15077;SDS011;7638;49.760;8.646;2023-08-21T12:38:30;2.80;;;1.60;;
15077;SDS011;7638;49.760;8.646;2023-08-21T12:40:56;2.47;;;1.93;;
15077;SDS011;7638;49.760;8.646;2023-08-21T12:43:22;3.07;;;1.97;;
15077;SDS011;7638;49.760;8.646;2023-08-21T12:45:48;2.60;;;1.60;;
15077;SDS011;7638;49.760;8.646;2023-08-21T12:48:14;3.57;;;1.87;;
15077;SDS011;7638;49.760;8.646;2023-08-21T12:50:40;3.07;;;1.57;;
15077;SDS011;7638;49.760;8.646;2023-08-21T12:53:06;2.60;;;1.80;;
15077;SDS011;7638;49.760;8.646;2023-08-21T12:55:33;4.13;;;1.83;;
15077;SDS011;7638;49.760;8.646;2023-08-21T12:57:59;2.27;;;2.00;;
15077;SDS011;7638;49.760;8.646;2023-08-21T13:00:25;1.83;;;1.70;;
15077;SDS011;7638;49.760;8.646;2023-08-21T13:02:51;2.63;;;1.80;;
15077;SDS011;7638;49.760;8.646;2023-08-21T13:05:17;4.13;;;2.63;;
15077;SDS011;7638;49.760;8.646;2023-08-21T13:07:43;2.53;;;1.87;;
15077;SDS011;7638;49.760;8.646;2023-08-21T13:10:09;1.87;;;1.70;;
15077;SDS011;7638;49.760;8.646;2023-08-21T13:12:35;2.27;;;1.70;;
15077;SDS011;7638;49.760;8.646;2023-08-21T13:15:02;3.63;;;1.90;;
15077;SDS011;7638;49.760;8.646;2023-08-21T13:17:28;3.43;;;1.90;;
15077;SDS011;7638;49.760;8.646;2023-08-21T13:19:54;3.53;;;1.97;;
15077;SDS011;7638;49.760;8.646;2023-08-21T13:22:20;3.47;;;2.10;;
15077;SDS011;7638;49.760;8.646;2023-08-21T13:24:46;3.03;;;1.67;;
15077;SDS011;7638;49.760;8.646;2023-08-21T13:27:12;3.30;;;1.80;;
15077;SDS011;7638;49.760;8.646;2023-08-21T13:29:38;2.83;;;1.80;;
15077;SDS011;7638;49.760;8.646;2023-08-21T13:32:05;2.67;;;1.70;;
15077;SDS011;7638;49.760;8.646;2023-08-21T13:34:31;2.47;;;1.57;;
15077;SDS011;7638;49.760;8.646;2023-08-21T13:36:57;2.70;;;2.13;;
15077;SDS011;7638;49.760;8.646;2023-08-21T13:39:23;3.07;;;1.87;;
15077;SDS011;7638;49.760;8.646;2023-08-21T13:41:51;2.73;;;1.80;;
15077;SDS011;7638;49.760;8.646;2023-08-21T13:44:17;2.43;;;1.50;;
15077;SDS011;7638;49.760;8.646;2023-08-21T13:46:43;1.70;;;1.60;;
15077;SDS011;7638;49.760;8.646;2023-08-21T13:49:09;1.77;;;1.27;;
15077;SDS011;7638;49.760;8.646;2023-08-21T13:51:35;4.30;;;1.87;;
15077;SDS011;7638;49.760;8.646;2023-08-21T13:54:01;3.03;;;1.60;;
15077;SDS011;7638;49.760;8.646;2023-08-21T13:56:27;4.43;;;1.43;;
15077;SDS011;7638;49.760;8.646;2023-08-21T13:58:53;1.60;;;1.50;;
15077;SDS011;7638;49.760;8.646;2023-08-21T14:01:19;3.37;;;1.43;;
15077;SDS011;7638;49.760;8.646;2023-08-21T14:03:45;2.00;;;1.50;;
15077;SDS011;7638;49.760;8.646;2023-08-21T14:06:11;2.93;;;2.03;;
15077;SDS011;7638;49.760;8.646;2023-08-21T14:08:37;2.23;;;2.03;;
15077;SDS011;7638;49.760;8.646;2023-08-21T14:11:03;4.33;;;2.27;;
15077;SDS011;7638;49.760;8.646;2023-08-21T14:13:29;1.80;;;1.23;;
15077;SDS011;7638;49.760;8.646;2023-08-21T14:15:55;2.27;;;1.80;;
15077;SDS011;7638;49.760;8.646;2023-08-21T14:18:21;1.90;;;1.67;;
15077;SDS011;7638;49.760;8.646;2023-08-21T14:20:47;6.13;;;2.20;;
15077;SDS011;7638;49.760;8.646;2023-08-21T14:23:13;1.83;;;1.60;;
15077;SDS011;7638;49.760;8.646;2023-08-21T14:25:39;1.60;;;1.50;;
15077;SDS011;7638;49.760;8.646;2023-08-21T14:28:05;2.30;;;1.70;;
15077;SDS011;7638;49.760;8.646;2023-08-21T14:30:31;1.43;;;1.23;;
15077;SDS011;7638;49.760;8.646;2023-08-21T14:32:57;1.30;;;1.20;;
15077;SDS011;7638;49.760;8.646;2023-08-21T14:35:23;1.67;;;1.50;;
15077;SDS011;7638;49.760;8.646;2023-08-21T14:37:49;3.03;;;1.60;;
15077;SDS011;7638;49.760;8.646;2023-08-21T14:40:15;2.00;;;1.70;;
15077;SDS011;7638;49.760;8.646;2023-08-21T14:42:41;1.50;;;1.40;;
15077;SDS011;7638;49.760;8.646;2023-08-21T14:45:08;1.97;;;1.57;;
15077;SDS011;7638;49.760;8.646;2023-08-21T14:47:34;1.60;;;1.50;;
15077;SDS011;7638;49.760;8.646;2023-08-21T14:50:02;1.97;;;1.73;;
15077;SDS011;7638;49.760;8.646;2023-08-21T14:52:28;2.20;;;1.50;;
15077;SDS011;7638;49.760;8.646;2023-08-21T14:54:54;2.10;;;1.43;;
15077;SDS011;7638;49.760;8.646;2023-08-21T14:57:20;1.60;;;1.50;;
15077;SDS011;7638;49.760;8.646;2023-08-21T14:59:46;1.63;;;1.37;;
15077;SDS011;7638;49.760;8.646;2023-08-21T15:02:12;3.93;;;1.80;;
15077;SDS011;7638;49.760;8.646;2023-08-21T15:04:38;2.70;;;1.73;;